createdAt,value
2023-01-11T00:00:36.471Z,101248.97
2023-01-11T00:03:04.891Z,101242.19
2023-01-11T00:05:31.555Z,101236.50
2023-01-11T00:07:58.778Z,101234.28
2023-01-11T00:10:25.366Z,101236.97
2023-01-11T00:12:51.929Z,101231.94
2023-01-11T00:15:18.522Z,101231.94
2023-01-11T00:17:45.149Z,101227.69
2023-01-11T00:20:11.946Z,101222.47
2023-01-11T00:22:38.567Z,101217.72
2023-01-11T00:25:05.595Z,101203.22
2023-01-11T00:27:32.246Z,101220.28
2023-01-11T00:29:58.822Z,101212.66
2023-01-11T00:32:27.261Z,101209.97
2023-01-11T00:34:54.264Z,101196.66
2023-01-11T00:37:21.672Z,101193.59
2023-01-11T00:39:48.291Z,101192.09
2023-01-11T00:42:33.657Z,101196.97
2023-01-11T00:45:19.147Z,101197.97
2023-01-11T00:47:57.496Z,101195.09
2023-01-11T00:50:25.676Z,101191.56
2023-01-11T00:52:52.291Z,101190.72
2023-01-11T00:55:19.070Z,101193.25
2023-01-11T00:57:45.684Z,101189.34
2023-01-11T01:00:13.080Z,101186.63
2023-01-11T01:02:39.929Z,101174.16
2023-01-11T01:05:06.916Z,101172.47
2023-01-11T01:07:33.701Z,101175.19
2023-01-11T01:10:00.297Z,101176.69
2023-01-11T01:12:45.333Z,101169.59
2023-01-11T01:15:11.980Z,101166.06
2023-01-11T01:17:38.574Z,101160.00
2023-01-11T01:20:06.349Z,101164.06
2023-01-11T01:22:32.938Z,101157.97
2023-01-11T01:24:59.513Z,101155.78
2023-01-11T01:27:26.645Z,101155.78
2023-01-11T01:29:53.248Z,101153.72
2023-01-11T01:32:19.785Z,101141.59
2023-01-11T01:34:46.431Z,101140.41
2023-01-11T01:37:14.816Z,101143.13
2023-01-11T01:39:41.882Z,101141.25
2023-01-11T01:42:17.221Z,101144.78
2023-01-11T01:44:57.196Z,101130.78
2023-01-11T01:47:36.029Z,101132.97
2023-01-11T01:50:12.671Z,101123.38
2023-01-11T01:52:40.361Z,101124.22
2023-01-11T01:55:12.750Z,101120.69
2023-01-11T01:57:43.571Z,101123.19
2023-01-11T02:00:11.513Z,101116.97
2023-01-11T02:02:39.913Z,101115.59
2023-01-11T02:05:08.193Z,101118.16
2023-01-11T02:07:38.438Z,101110.53
2023-01-11T02:10:15.372Z,101110.19
2023-01-11T02:13:09.008Z,101089.78
2023-01-11T02:15:36.810Z,101097.22
2023-01-11T02:18:03.709Z,101089.13
2023-01-11T02:21:01.876Z,101084.00
2023-01-11T02:23:46.485Z,101077.97
2023-01-11T02:26:44.362Z,101079.81
2023-01-11T02:29:26.725Z,101076.47
2023-01-11T02:32:11.940Z,101061.94
2023-01-11T02:34:47.482Z,101056.91
2023-01-11T02:37:31.988Z,101048.63
2023-01-11T02:40:20.218Z,101044.72
2023-01-11T02:43:14.445Z,101040.34
2023-01-11T02:45:46.707Z,101032.25
2023-01-11T02:48:49.758Z,101021.44
2023-01-11T02:51:39.446Z,101027.69
2023-01-11T02:54:09.370Z,101016.69
2023-01-11T02:56:43.157Z,101007.56
2023-01-11T02:59:15.513Z,101005.06
2023-01-11T03:01:46.151Z,100995.94
2023-01-11T03:04:27.964Z,101014.19
2023-01-11T03:07:07.288Z,101014.19
2023-01-11T03:09:55.556Z,100998.34
2023-01-11T03:12:54.835Z,100994.63
2023-01-11T03:15:24.092Z,100987.88
2023-01-11T03:18:01.107Z,100977.25
2023-01-11T03:20:39.272Z,100972.03
2023-01-11T03:23:12.720Z,100973.91
2023-01-11T03:25:58.290Z,100964.78
2023-01-11T03:28:45.988Z,100964.78
2023-01-11T03:31:17.892Z,100958.25
2023-01-11T03:34:04.140Z,100954.34
2023-01-11T03:36:39.200Z,100955.84
2023-01-11T03:39:11.672Z,100957.91
2023-01-11T03:41:41.537Z,100947.81
2023-01-11T03:44:10.795Z,100951.19
2023-01-11T03:46:42.116Z,100949.47
2023-01-11T03:49:13.854Z,100950.50
2023-01-11T03:51:46.152Z,100940.22
2023-01-11T03:54:17.024Z,100934.63
2023-01-11T03:56:56.306Z,100937.50
2023-01-11T03:59:22.948Z,100928.75
2023-01-11T04:01:49.473Z,100929.75
2023-01-11T04:04:16.098Z,100917.63
2023-01-11T04:06:42.750Z,100915.78
2023-01-11T04:09:09.367Z,100914.47
2023-01-11T04:11:35.916Z,100910.09
2023-01-11T04:14:02.545Z,100917.16
2023-01-11T04:16:29.365Z,100914.47
2023-01-11T04:18:56.016Z,100909.72
2023-01-11T04:21:22.936Z,100907.69
2023-01-11T04:23:49.676Z,100910.56
2023-01-11T04:26:17.563Z,100902.34
2023-01-11T04:28:44.806Z,100910.44
2023-01-11T04:31:11.469Z,100905.53
2023-01-11T04:33:38.164Z,100893.72
2023-01-11T04:36:09.885Z,100898.28
2023-01-11T04:38:37.351Z,100893.25
2023-01-11T04:41:23.834Z,100895.25
2023-01-11T04:43:50.567Z,100894.41
2023-01-11T04:46:17.183Z,100881.94
2023-01-11T04:48:43.778Z,100881.78
2023-01-11T04:51:10.407Z,100880.75
2023-01-11T04:53:37.211Z,100872.13
2023-01-11T04:56:05.740Z,100865.25
2023-01-11T04:58:37.132Z,100869.28
2023-01-11T05:01:12.145Z,100856.47
2023-01-11T05:03:38.922Z,100863.72
2023-01-11T05:06:06.030Z,100862.69
2023-01-11T05:08:32.675Z,100855.47
2023-01-11T05:11:01.883Z,100865.06
2023-01-11T05:13:44.056Z,100856.81
2023-01-11T05:16:17.966Z,100856.47
2023-01-11T05:18:48.806Z,100852.16
2023-01-11T05:21:17.436Z,100843.88
2023-01-11T05:23:44.723Z,100842.31
2023-01-11T05:26:34.514Z,100840.25
2023-01-11T05:29:04.288Z,100831.34
2023-01-11T05:31:32.181Z,100835.06
2023-01-11T05:33:59.201Z,100831.34
2023-01-11T05:36:27.724Z,100816.66
2023-01-11T05:38:56.242Z,100820.00
2023-01-11T05:41:25.244Z,100826.97
2023-01-11T05:44:11.630Z,100820.53
2023-01-11T05:46:39.719Z,100812.28
2023-01-11T05:49:07.598Z,100811.13
2023-01-11T05:51:34.861Z,100815.97
2023-01-11T05:54:04.865Z,100811.78
2023-01-11T05:56:31.787Z,100805.38
2023-01-11T05:58:58.563Z,100808.63
2023-01-11T06:01:26.178Z,100809.09
2023-01-11T06:03:52.900Z,100794.28
2023-01-11T06:06:20.870Z,100791.22
2023-01-11T06:08:47.866Z,100798.28
2023-01-11T06:11:15.290Z,100805.19
2023-01-11T06:13:42.310Z,100793.28
2023-01-11T06:16:17.385Z,100795.22
2023-01-11T06:18:46.548Z,100797.66
2023-01-11T06:21:14.452Z,100796.81
2023-01-11T06:23:43.915Z,100788.00
2023-01-11T06:26:13.792Z,100781.91
2023-01-11T06:28:41.347Z,100781.28
2023-01-11T06:31:08.541Z,100783.13
2023-01-11T06:33:36.240Z,100785.19
2023-01-11T06:36:06.370Z,100780.44
2023-01-11T06:38:33.322Z,100780.25
2023-01-11T06:41:02.429Z,100790.56
2023-01-11T06:43:30.331Z,100785.94
2023-01-11T06:45:57.649Z,100786.69
2023-01-11T06:48:25.131Z,100790.06
2023-01-11T06:50:54.127Z,100786.53
2023-01-11T06:53:21.141Z,100797.34
2023-01-11T06:55:52.399Z,100788.84
2023-01-11T06:58:20.132Z,100797.34
2023-01-11T07:00:46.963Z,100800.22
2023-01-11T07:03:13.762Z,100796.13
2023-01-11T07:05:42.238Z,100804.69
2023-01-11T07:08:08.889Z,100804.84
2023-01-11T07:10:35.902Z,100802.13
2023-01-11T07:13:02.682Z,100802.19
2023-01-11T07:15:29.313Z,100794.09
2023-01-11T07:17:57.732Z,100804.22
2023-01-11T07:20:25.535Z,100804.88
2023-01-11T07:22:52.337Z,100808.59
2023-01-11T07:25:19.363Z,100816.72
2023-01-11T07:27:45.984Z,100807.31
2023-01-11T07:30:13.001Z,100805.63
2023-01-11T07:32:39.734Z,100798.72
2023-01-11T07:35:06.944Z,100806.16
2023-01-11T07:37:34.343Z,100804.31
2023-01-11T07:40:00.996Z,100813.25
2023-01-11T07:42:46.101Z,100805.63
2023-01-11T07:45:12.948Z,100802.81
2023-01-11T07:47:39.632Z,100803.13
2023-01-11T07:50:06.970Z,100807.84
2023-01-11T07:52:33.552Z,100806.34
2023-01-11T07:55:02.706Z,100799.75
2023-01-11T07:57:30.587Z,100798.81
2023-01-11T07:59:57.429Z,100801.69
2023-01-11T08:02:24.503Z,100818.56
2023-01-11T08:04:51.197Z,100812.31
2023-01-11T08:07:17.937Z,100801.03
2023-01-11T08:09:44.563Z,100797.22
2023-01-11T08:12:29.659Z,100805.13
2023-01-11T08:14:56.257Z,100795.53
2023-01-11T08:17:22.840Z,100794.31
2023-01-11T08:19:49.421Z,100786.22
2023-01-11T08:22:18.214Z,100788.28
2023-01-11T08:24:44.812Z,100799.06
2023-01-11T08:27:11.570Z,100794.22
2023-01-11T08:29:39.869Z,100783.53
2023-01-11T08:32:06.450Z,100784.94
2023-01-11T08:34:34.628Z,100784.09
2023-01-11T08:37:02.202Z,100778.31
2023-01-11T08:39:32.229Z,100782.31
2023-01-11T08:42:00.106Z,100782.13
2023-01-11T08:44:34.065Z,100776.09
2023-01-11T08:47:01.626Z,100773.75
2023-01-11T08:49:28.306Z,100784.19
2023-01-11T08:51:54.920Z,100774.72
2023-01-11T08:54:22.157Z,100772.34
2023-01-11T08:56:48.862Z,100760.91
2023-01-11T08:59:15.501Z,100755.13
2023-01-11T09:01:42.184Z,100766.63
2023-01-11T09:04:19.332Z,100758.53
2023-01-11T09:06:50.404Z,100762.13
2023-01-11T09:09:17.175Z,100760.66
2023-01-11T09:11:56.966Z,100754.41
2023-01-11T09:14:25.505Z,100761.50
2023-01-11T09:16:52.697Z,100760.53
2023-01-11T09:19:19.352Z,100748.56
2023-01-11T09:21:46.581Z,100753.19
2023-01-11T09:24:13.671Z,100749.84
2023-01-11T09:26:41.612Z,100741.28
2023-01-11T09:29:08.447Z,100743.16
2023-01-11T09:31:35.229Z,100752.75
2023-01-11T09:34:01.907Z,100736.94
2023-01-11T09:36:29.087Z,100729.47
2023-01-11T09:38:57.832Z,100728.16
2023-01-11T09:41:33.624Z,100731.16
2023-01-11T09:44:12.077Z,100718.09
2023-01-11T09:46:42.917Z,100719.50
2023-01-11T09:49:25.114Z,100714.94
2023-01-11T09:51:52.239Z,100710.56
2023-01-11T09:54:25.929Z,100704.41
2023-01-11T09:57:18.496Z,100706.22
2023-01-11T09:59:57.003Z,100703.13
2023-01-11T10:02:56.976Z,100710.47
2023-01-11T10:05:38.675Z,100711.22
2023-01-11T10:18:25.783Z,100711.88
2023-01-11T10:18:27.727Z,100706.94
2023-01-11T10:21:27.268Z,100686.44
2023-01-11T10:24:02.941Z,100696.06
2023-01-11T10:26:37.298Z,100701.06
2023-01-11T10:29:16.555Z,100704.63
2023-01-11T10:32:02.324Z,100692.16
2023-01-11T10:34:53.153Z,100694.31
2023-01-11T10:37:50.420Z,100688.22
2023-01-11T10:40:35.157Z,100691.59
2023-01-11T10:43:16.834Z,100690.38
2023-01-11T10:45:50.694Z,100685.19
2023-01-11T10:48:27.526Z,100672.31
2023-01-11T10:51:07.761Z,100666.28
2023-01-11T10:53:41.089Z,100660.19
2023-01-11T10:56:19.957Z,100660.19
2023-01-11T10:59:07.917Z,100663.94
2023-01-11T11:01:54.254Z,100655.00
2023-01-11T11:04:50.193Z,100660.19
2023-01-11T11:07:26.007Z,100655.63
2023-01-11T11:10:34.580Z,100665.25
2023-01-11T11:13:55.155Z,100655.84
2023-01-11T11:16:24.245Z,100658.91
2023-01-11T11:18:58.416Z,100649.59
2023-01-11T11:21:37.323Z,100633.41
2023-01-11T11:24:24.794Z,100641.50
2023-01-11T11:27:02.830Z,100637.78
2023-01-11T11:29:30.777Z,100627.81
2023-01-11T11:32:00.151Z,100626.13
2023-01-11T11:34:28.255Z,100627.81
2023-01-11T11:36:59.422Z,100618.72
2023-01-11T11:39:30.869Z,100620.94
2023-01-11T11:42:05.908Z,100622.34
2023-01-11T11:44:32.770Z,100612.66
2023-01-11T11:47:12.387Z,100621.78
2023-01-11T11:49:40.003Z,100618.34
2023-01-11T11:52:09.478Z,100617.41
2023-01-11T11:54:38.998Z,100611.94
2023-01-11T11:57:42.612Z,100612.75
2023-01-11T12:00:33.397Z,100612.56
2023-01-11T12:03:06.355Z,100613.84
2023-01-11T12:05:33.138Z,100600.28
2023-01-11T12:08:01.116Z,100603.44
2023-01-11T12:10:30.100Z,100605.75
2023-01-11T12:12:59.403Z,100612.63
2023-01-11T12:15:31.143Z,100605.84
2023-01-11T12:18:33.366Z,100600.66
2023-01-11T12:21:22.437Z,100613.88
2023-01-11T12:24:10.961Z,100607.53
2023-01-11T12:26:48.369Z,100605.91
2023-01-11T12:29:24.448Z,100606.50
2023-01-11T12:32:23.227Z,100612.19
2023-01-11T12:35:02.862Z,100601.59
2023-01-11T12:37:44.332Z,100600.09
2023-01-11T12:40:33.424Z,100595.44
2023-01-11T12:43:34.684Z,100595.00
2023-01-11T12:46:21.566Z,100593.31
2023-01-11T12:49:00.158Z,100574.25
2023-01-11T12:51:43.188Z,100586.91
2023-01-11T12:54:23.786Z,100594.41
2023-01-11T12:56:58.215Z,100583.16
2023-01-11T12:59:35.294Z,100579.44
2023-01-11T13:02:39.268Z,100565.13
2023-01-11T13:05:25.141Z,100564.53
2023-01-11T13:08:12.549Z,100561.38
2023-01-11T13:10:51.250Z,100564.47
2023-01-11T13:13:57.388Z,100553.47
2023-01-11T13:16:34.133Z,100550.41
2023-01-11T13:19:08.967Z,100553.28
2023-01-11T13:21:43.338Z,100548.34
2023-01-11T13:24:18.120Z,100554.03
2023-01-11T13:26:50.396Z,100545.16
2023-01-11T13:29:29.303Z,100542.66
2023-01-11T13:32:00.184Z,100546.66
2023-01-11T13:34:36.265Z,100549.06
2023-01-11T13:37:11.558Z,100543.88
2023-01-11T13:39:53.951Z,100541.38
2023-01-11T13:42:24.374Z,100542.50
2023-01-11T13:45:01.604Z,100548.53
2023-01-11T13:47:34.501Z,100548.53
2023-01-11T13:50:13.423Z,100550.19
2023-01-11T13:53:09.979Z,100547.50
2023-01-11T13:55:45.592Z,100550.88
2023-01-11T13:58:20.375Z,100546.66
2023-01-11T14:01:11.339Z,100546.03
2023-01-11T14:03:49.272Z,100549.38
2023-01-11T14:06:42.311Z,100542.94
2023-01-11T14:10:05.744Z,100558.31
2023-01-11T14:13:01.980Z,100551.03
2023-01-11T14:15:38.091Z,100552.44
2023-01-11T14:18:21.301Z,100548.00
2023-01-11T14:21:09.086Z,100547.69
2023-01-11T14:23:41.346Z,100552.44
2023-01-11T14:26:26.765Z,100557.66
2023-01-11T14:29:15.653Z,100550.78
2023-01-11T14:31:55.251Z,100552.44
2023-01-11T14:34:21.752Z,100550.78
2023-01-11T14:37:13.099Z,100555.16
2023-01-11T14:39:48.610Z,100552.44
2023-01-11T14:42:40.143Z,100557.09
2023-01-11T14:45:27.285Z,100561.84
2023-01-11T14:48:09.213Z,100554.22
2023-01-11T14:50:38.667Z,100556.72
2023-01-11T14:53:09.771Z,100563.59
2023-01-11T14:58:36.277Z,100559.22
2023-01-11T15:01:06.212Z,100565.84
2023-01-11T15:03:45.584Z,100555.41
2023-01-11T15:06:16.555Z,100566.03
2023-01-11T15:08:48.071Z,100564.81
2023-01-11T15:11:29.081Z,100566.31
2023-01-11T15:13:59.468Z,100562.50
2023-01-11T15:16:47.132Z,100569.94
2023-01-11T15:19:47.279Z,100572.47
2023-01-11T15:22:28.862Z,100565.13
2023-01-11T15:25:02.050Z,100565.31
2023-01-11T15:27:39.368Z,100570.69
2023-01-11T15:30:28.782Z,100556.75
2023-01-11T15:33:17.157Z,100562.16
2023-01-11T15:35:55.760Z,100563.63
2023-01-11T15:38:29.058Z,100569.66
2023-01-11T15:41:18.227Z,100569.88
2023-01-11T15:44:32.274Z,100582.13
2023-01-11T15:47:34.040Z,100582.63
2023-01-11T15:50:19.114Z,100580.56
2023-01-11T15:56:40.005Z,100589.28
2023-01-11T15:59:30.223Z,100591.28
2023-01-11T16:02:34.694Z,100589.03
2023-01-11T16:05:16.010Z,100595.00
2023-01-11T16:07:57.790Z,100589.69
2023-01-11T16:10:42.757Z,100604.56
2023-01-11T16:16:11.014Z,100590.63
2023-01-11T16:18:49.799Z,100599.75
2023-01-11T16:21:39.789Z,100599.28
2023-01-11T16:24:09.220Z,100594.59
2023-01-11T16:32:51.445Z,100623.84
2023-01-11T16:35:19.467Z,100626.34
2023-01-11T16:37:50.121Z,100626.16
2023-01-11T16:40:21.700Z,100632.47
2023-01-11T16:43:00.032Z,100642.91
2023-01-11T16:45:43.622Z,100642.53
2023-01-11T16:48:24.387Z,100649.34
2023-01-11T16:50:59.213Z,100654.38
2023-01-11T16:53:27.200Z,100651.66
2023-01-11T16:56:02.905Z,100653.06
2023-01-11T16:58:32.270Z,100656.75
2023-01-11T17:01:12.149Z,100658.72
2023-01-11T17:03:49.377Z,100664.59
2023-01-11T17:06:18.024Z,100662.84
2023-01-11T17:08:50.696Z,100668.88
2023-01-11T17:11:41.853Z,100662.84
2023-01-11T17:14:14.112Z,100665.69
2023-01-11T17:16:45.213Z,100673.63
2023-01-11T17:19:24.356Z,100678.53
2023-01-11T17:21:52.696Z,100676.34
2023-01-11T17:24:25.026Z,100671.59
2023-01-11T17:27:00.631Z,100675.56
2023-01-11T17:29:38.295Z,100661.81
2023-01-11T17:32:12.288Z,100669.06
2023-01-11T17:34:39.792Z,100672.03
2023-01-11T17:37:12.762Z,100682.94
2023-01-11T17:39:48.852Z,100684.31
2023-01-11T17:42:35.473Z,100693.06
2023-01-11T17:45:15.899Z,100687.66
2023-01-11T17:47:48.008Z,100696.63
2023-01-11T17:50:23.707Z,100703.50
2023-01-11T17:52:57.639Z,100708.25
2023-01-11T17:55:27.141Z,100703.69
2023-01-11T17:58:19.374Z,100703.50
2023-01-11T18:01:09.316Z,100711.94
2023-01-11T18:03:42.326Z,100705.56
2023-01-11T18:06:13.225Z,100704.72
2023-01-11T18:08:45.573Z,100707.22
2023-01-11T18:11:12.189Z,100705.56
2023-01-11T18:13:39.004Z,100712.44
2023-01-11T18:16:05.880Z,100715.13
2023-01-11T18:18:47.297Z,100725.75
2023-01-11T18:21:25.786Z,100726.78
2023-01-11T18:24:14.452Z,100726.13
2023-01-11T18:26:43.692Z,100729.84
2023-01-11T18:29:38.446Z,100740.47
2023-01-11T18:32:06.203Z,100748.75
2023-01-11T18:34:32.835Z,100748.75
2023-01-11T18:37:00.437Z,100754.97
2023-01-11T18:39:27.211Z,100748.91
2023-01-11T18:42:07.256Z,100746.69
2023-01-11T18:44:39.289Z,100762.06
2023-01-11T18:47:23.973Z,100766.25
2023-01-11T18:49:52.045Z,100751.06
2023-01-11T18:52:20.390Z,100757.50
2023-01-11T18:54:47.673Z,100756.00
2023-01-11T18:57:14.336Z,100763.06
2023-01-11T18:59:40.960Z,100766.44
2023-01-11T19:02:21.853Z,100765.41
2023-01-11T19:04:48.973Z,100778.06
2023-01-11T19:07:16.429Z,100788.94
2023-01-11T19:09:45.092Z,100792.78
2023-01-11T19:12:12.249Z,100786.81
2023-01-11T19:14:40.100Z,100794.56
2023-01-11T19:17:08.764Z,100799.13
2023-01-11T19:19:35.776Z,100798.94
2023-01-11T19:22:02.938Z,100800.69
2023-01-11T19:24:30.109Z,100803.13
2023-01-11T19:26:56.749Z,100813.25
2023-01-11T19:29:24.777Z,100801.53
2023-01-11T19:31:53.286Z,100810.06
2023-01-11T19:34:19.882Z,100808.78
2023-01-11T19:36:46.558Z,100799.00
2023-01-11T19:39:13.185Z,100814.63
2023-01-11T19:41:57.191Z,100818.75
2023-01-11T19:44:26.787Z,100823.00
2023-01-11T19:47:09.756Z,100829.03
2023-01-11T19:49:37.861Z,100836.03
2023-01-11T19:52:05.695Z,100838.66
2023-01-11T19:54:32.273Z,100842.38
2023-01-11T19:56:58.876Z,100856.03
2023-01-11T19:59:25.483Z,100859.94
2023-01-11T20:01:52.115Z,100858.25
2023-01-11T20:04:18.931Z,100862.34
2023-01-11T20:06:50.407Z,100864.50
2023-01-11T20:09:18.538Z,100871.56
2023-01-11T20:11:46.160Z,100875.94
2023-01-11T20:14:12.753Z,100878.84
2023-01-11T20:16:39.378Z,100884.69
2023-01-11T20:19:06.151Z,100890.47
2023-01-11T20:21:34.245Z,100884.22
2023-01-11T20:24:04.589Z,100885.56
2023-01-11T20:26:33.805Z,100887.25
2023-01-11T20:29:01.314Z,100884.88
2023-01-11T20:31:31.658Z,100887.41
2023-01-11T20:34:00.176Z,100884.34
2023-01-11T20:36:27.023Z,100883.34
2023-01-11T20:38:54.913Z,100882.31
2023-01-11T20:41:43.629Z,100886.75
2023-01-11T20:44:10.839Z,100879.78
2023-01-11T20:46:37.860Z,100892.47
2023-01-11T20:49:06.410Z,100896.69
2023-01-11T20:51:33.300Z,100894.84
2023-01-11T20:54:00.209Z,100897.72
2023-01-11T20:56:26.823Z,100898.75
2023-01-11T20:58:53.467Z,100893.81
2023-01-11T21:01:26.898Z,100904.16
2023-01-11T21:03:54.931Z,100911.41
2023-01-11T21:06:21.512Z,100915.91
2023-01-11T21:08:48.099Z,100911.88
2023-01-11T21:11:16.194Z,100907.31
2023-01-11T21:13:42.825Z,100919.63
2023-01-11T21:16:12.283Z,100921.78
2023-01-11T21:18:43.399Z,100918.06
2023-01-11T21:21:18.081Z,100922.44
2023-01-11T21:23:45.676Z,100922.63
2023-01-11T21:26:18.602Z,100923.09
2023-01-11T21:28:49.462Z,100923.28
2023-01-11T21:31:17.801Z,100918.72
2023-01-11T21:33:44.481Z,100917.63
2023-01-11T21:36:12.707Z,100924.19
2023-01-11T21:38:39.817Z,100919.63
2023-01-11T21:41:08.436Z,100916.72
2023-01-11T21:43:35.509Z,100899.50
2023-01-11T21:46:03.686Z,100905.75
2023-01-11T21:48:31.510Z,100906.44
2023-01-11T21:50:58.577Z,100898.13
2023-01-11T21:53:30.020Z,100903.53
2023-01-11T21:55:57.303Z,100906.91
2023-01-11T21:58:23.969Z,100907.72
2023-01-11T22:00:50.587Z,100903.16
2023-01-11T22:03:17.163Z,100909.06
2023-01-11T22:05:43.810Z,100896.59
2023-01-11T22:08:10.365Z,100901.16
2023-01-11T22:10:36.988Z,100900.13
2023-01-11T22:13:03.575Z,100896.78
2023-01-11T22:15:30.167Z,100908.41
2023-01-11T22:17:56.757Z,100915.50
2023-01-11T22:20:23.368Z,100919.88
2023-01-11T22:22:49.970Z,100919.22
2023-01-11T22:25:17.339Z,100908.22
2023-01-11T22:27:43.932Z,100927.13
2023-01-11T22:30:11.112Z,100932.34
2023-01-11T22:32:37.847Z,100920.06
2023-01-11T22:35:04.867Z,100920.06
2023-01-11T22:37:31.456Z,100929.00
2023-01-11T22:40:00.714Z,100925.47
2023-01-11T22:42:28.063Z,100927.47
2023-01-11T22:44:55.261Z,100926.28
2023-01-11T22:47:21.872Z,100929.19
2023-01-11T22:49:53.760Z,100931.00
2023-01-11T22:52:21.722Z,100934.59
2023-01-11T22:54:48.561Z,100934.41
2023-01-11T22:57:15.286Z,100933.72
2023-01-11T22:59:41.955Z,100926.47
2023-01-11T23:02:08.630Z,100919.22
2023-01-11T23:04:35.216Z,100922.06
2023-01-11T23:07:01.865Z,100934.94
2023-01-11T23:09:28.441Z,100930.19
2023-01-11T23:12:13.637Z,100936.78
2023-01-11T23:14:40.260Z,100942.38
2023-01-11T23:17:07.073Z,100932.22
2023-01-11T23:19:35.977Z,100941.16
2023-01-11T23:22:03.131Z,100947.22
2023-01-11T23:24:29.822Z,100944.50
2023-01-11T23:26:56.603Z,100940.00
2023-01-11T23:29:23.472Z,100952.63
2023-01-11T23:31:50.360Z,100946.56
2023-01-11T23:34:16.956Z,100934.75
2023-01-11T23:36:43.573Z,100933.72
2023-01-11T23:39:14.055Z,100930.88
2023-01-11T23:41:59.638Z,100934.94
2023-01-11T23:44:26.331Z,100931.75
2023-01-11T23:47:11.419Z,100923.09
2023-01-11T23:49:38.058Z,100932.88
2023-01-11T23:52:05.086Z,100935.09
2023-01-11T23:54:33.263Z,100935.75
2023-01-11T23:57:01.200Z,100939.50
2023-01-11T23:59:28.164Z,100931.38
